Terminal Aerodrome Forecast
Issued by NWS

Home | Current Version | Previous Version | Text Only | Print | Product List | Glossary On
Versions: 1 2 3 4 5 6 7 8 9 10 11
184
FTUS46 KSEW 242320
TAFHQM
TAF
KHQM 242320Z 2500/2524 26014KT P6SM VCSH BKN025
      TEMPO 2500/2504 SCT030
     FM250900 21008KT P6SM BKN020
     FM251600 18008KT P6SM BKN030 BKN120
     FM252000 16012KT P6SM -RA OVC030=

USA.gov is the U.S. government's official web portal to all federal, state and local government web resources and services.